createdAt,value
2023-04-05T00:01:41.702Z,7.48
2023-04-05T00:05:05.389Z,7.53
2023-04-05T00:08:24.637Z,7.55
2023-04-05T00:11:41.484Z,8.25
2023-04-05T00:14:54.783Z,8.50
2023-04-05T00:21:10.032Z,8.25
2023-04-05T00:24:24.493Z,8.93
2023-04-05T00:27:37.317Z,8.48
2023-04-05T00:30:50.650Z,7.75
2023-04-05T00:34:03.609Z,7.58
2023-04-05T00:37:17.415Z,7.98
2023-04-05T00:40:30.529Z,7.80
2023-04-05T00:43:42.925Z,8.33
2023-04-05T00:46:56.055Z,8.33
2023-04-05T00:50:09.642Z,8.00
2023-04-05T00:53:22.328Z,8.18
2023-04-05T00:56:35.246Z,7.35
2023-04-05T00:59:47.828Z,7.50
2023-04-05T01:09:15.275Z,7.58
2023-04-05T01:12:35.122Z,7.65
2023-04-05T01:22:32.795Z,8.28
2023-04-05T01:51:06.933Z,9.75
2023-04-05T01:54:19.334Z,10.98
2023-04-05T02:04:20.454Z,10.30
2023-04-05T02:13:32.278Z,10.08
2023-04-05T02:16:45.382Z,10.35
2023-04-05T02:32:08.454Z,10.00
2023-04-05T02:44:23.929Z,10.58
2023-04-05T02:47:37.862Z,10.03
2023-04-05T02:50:53.180Z,9.63
2023-04-05T02:54:05.054Z,10.53
2023-04-05T02:57:19.257Z,10.13
2023-04-05T03:00:33.395Z,10.08
2023-04-05T03:06:48.556Z,9.93
2023-04-05T03:13:13.093Z,9.75
2023-04-05T03:16:25.653Z,10.70
2023-04-05T03:19:38.730Z,9.68
2023-04-05T03:22:55.762Z,10.50
2023-04-05T03:26:10.452Z,10.30
2023-04-05T03:29:25.606Z,10.70
2023-04-05T03:32:38.077Z,10.68
2023-04-05T03:35:52.434Z,10.30
2023-04-05T03:39:07.230Z,11.78
2023-04-05T03:42:19.606Z,10.98
2023-04-05T03:45:33.777Z,11.75
2023-04-05T03:48:47.178Z,12.48
2023-04-05T03:52:01.704Z,10.35
2023-04-05T03:55:17.089Z,11.50
2023-04-05T03:58:31.482Z,11.77
2023-04-05T04:01:45.147Z,11.80
2023-04-05T04:04:57.903Z,11.95
2023-04-05T04:08:11.591Z,11.60
2023-04-05T04:11:25.453Z,12.63
2023-04-05T04:14:38.489Z,11.88
2023-04-05T04:18:04.105Z,11.88
2023-04-05T04:21:19.254Z,12.38
2023-04-05T04:24:34.182Z,11.90
2023-04-05T04:27:50.825Z,12.75
2023-04-05T04:31:21.645Z,12.83
2023-04-05T04:34:41.871Z,12.05
2023-04-05T04:37:58.763Z,13.58
2023-04-05T04:41:20.363Z,12.60
2023-04-05T04:44:37.379Z,12.63
2023-04-05T04:47:54.142Z,13.45
2023-04-05T04:51:10.482Z,12.73
2023-04-05T04:54:23.571Z,13.35
2023-04-05T04:57:35.516Z,12.73
2023-04-05T05:00:48.542Z,12.83
2023-04-05T05:04:00.656Z,12.95
2023-04-05T05:07:15.931Z,12.50
2023-04-05T05:10:28.167Z,12.53
2023-04-05T05:13:42.137Z,13.08
2023-04-05T05:29:32.884Z,12.35
2023-04-05T05:35:45.178Z,12.33
2023-04-05T05:38:57.276Z,12.18
2023-04-05T05:45:13.220Z,10.88
2023-04-05T05:57:25.909Z,13.10
2023-04-05T06:00:39.494Z,13.85
2023-04-05T06:03:52.944Z,14.23
2023-04-05T06:07:06.288Z,15.15
2023-04-05T06:10:19.966Z,22.00
2023-04-05T06:13:32.283Z,15.73
2023-04-05T06:16:44.391Z,14.53
2023-04-05T06:19:56.584Z,14.78
2023-04-05T06:26:09.024Z,14.03
2023-04-05T06:29:21.304Z,14.08
2023-04-05T06:32:33.295Z,14.13
2023-04-05T06:35:45.922Z,14.40
2023-04-05T06:38:58.363Z,33.90
2023-04-05T06:42:10.491Z,15.05
2023-04-05T06:45:24.618Z,14.40
2023-04-05T06:48:38.686Z,14.80
2023-04-05T06:51:50.907Z,13.10
2023-04-05T06:55:03.069Z,14.38
2023-04-05T06:58:15.078Z,13.35
2023-04-05T07:01:27.693Z,14.03
2023-04-05T07:04:41.463Z,12.08
2023-04-05T07:07:53.650Z,11.70
2023-04-05T07:11:06.534Z,13.50
2023-04-05T07:14:18.685Z,11.63
2023-04-05T07:17:30.998Z,17.58
2023-04-05T07:20:43.504Z,10.00
2023-04-05T07:23:58.795Z,9.50
2023-04-05T07:27:11.057Z,9.20
2023-04-05T07:30:23.604Z,9.15
2023-04-05T07:33:36.682Z,8.58
2023-04-05T07:36:50.556Z,7.08
2023-04-05T07:40:04.457Z,6.63
2023-04-05T07:43:16.704Z,15.98
2023-04-05T07:46:28.752Z,7.95
2023-04-05T07:49:41.899Z,8.50
2023-04-05T07:52:54.093Z,7.88
2023-04-05T07:56:12.285Z,7.55
2023-04-05T07:59:24.427Z,8.65
2023-04-05T08:02:38.004Z,8.65
2023-04-05T08:05:50.455Z,9.33
2023-04-05T08:09:04.593Z,9.43
2023-04-05T08:12:17.048Z,9.15
2023-04-05T08:15:29.075Z,9.63
2023-04-05T08:18:42.662Z,17.13
2023-04-05T08:21:54.744Z,10.78
2023-04-05T08:25:07.020Z,11.00
2023-04-05T08:28:19.550Z,11.80
2023-04-05T08:31:31.865Z,10.20
2023-04-05T08:34:44.179Z,8.58
2023-04-05T08:37:56.273Z,10.38
2023-04-05T08:41:16.863Z,11.68
2023-04-05T08:44:31.527Z,39.23
2023-04-05T08:47:44.591Z,7.15
2023-04-05T08:51:01.669Z,7.20
2023-04-05T08:54:15.365Z,7.68
2023-04-05T08:57:31.511Z,6.30
2023-04-05T09:00:44.241Z,7.63
2023-04-05T09:03:58.522Z,6.70
2023-04-05T09:07:12.792Z,6.35
2023-04-05T09:10:27.515Z,7.18
2023-04-05T09:13:39.964Z,6.43
2023-04-05T09:16:52.519Z,6.45
2023-04-05T09:20:04.705Z,6.83
2023-04-05T09:23:16.721Z,8.33
2023-04-05T09:26:32.386Z,13.50
2023-04-05T09:29:47.612Z,6.48
2023-04-05T09:33:01.580Z,5.88
2023-04-05T09:36:14.713Z,4.85
2023-04-05T09:39:33.950Z,5.53
2023-04-05T09:42:54.259Z,5.68
2023-04-05T09:46:06.366Z,5.08
2023-04-05T09:49:18.724Z,6.03
2023-04-05T09:52:33.026Z,8.33
2023-04-05T09:55:45.758Z,5.80
2023-04-05T09:59:01.506Z,5.60
2023-04-05T10:02:14.166Z,5.30
2023-04-05T10:05:29.355Z,5.45
2023-04-05T10:08:41.534Z,5.40
2023-04-05T10:11:53.929Z,6.75
2023-04-05T10:15:06.409Z,6.75
2023-04-05T10:18:22.815Z,5.70
2023-04-05T10:21:40.200Z,13.90
2023-04-05T10:24:56.655Z,12.85
2023-04-05T10:28:13.909Z,7.58
2023-04-05T10:34:49.717Z,5.20
2023-04-05T10:38:13.896Z,5.85
2023-04-05T10:41:26.120Z,5.78
2023-04-05T10:44:42.784Z,5.45
2023-04-05T10:48:02.410Z,4.83
2023-04-05T10:51:16.174Z,4.90
2023-04-05T10:54:28.837Z,5.08
2023-04-05T10:57:42.562Z,4.45
2023-04-05T11:00:55.897Z,4.95
2023-04-05T11:04:19.111Z,4.93
2023-04-05T11:07:31.669Z,4.55
2023-04-05T11:10:45.671Z,5.10
2023-04-05T11:13:59.880Z,4.85
2023-04-05T11:17:22.527Z,5.03
2023-04-05T11:20:45.897Z,4.93
2023-04-05T11:24:15.633Z,5.38
2023-04-05T11:27:32.768Z,5.85
2023-04-05T11:34:14.264Z,6.60
2023-04-05T11:37:28.508Z,6.18
2023-04-05T11:40:43.764Z,5.43
2023-04-05T11:43:59.578Z,8.08
2023-04-05T11:47:12.997Z,6.75
2023-04-05T11:50:25.257Z,6.30
2023-04-05T11:53:37.333Z,6.75
2023-04-05T11:56:56.497Z,6.35
2023-04-05T12:00:09.315Z,6.18
2023-04-05T12:03:24.136Z,4.80
2023-04-05T12:06:36.310Z,5.95
2023-04-05T12:10:16.192Z,5.18
2023-04-05T12:13:39.010Z,5.48
2023-04-05T12:16:58.878Z,7.23
2023-04-05T12:20:13.514Z,8.30
2023-04-05T12:23:28.555Z,8.18
2023-04-05T12:26:42.629Z,7.53
2023-04-05T12:30:15.186Z,8.05
2023-04-05T12:36:57.017Z,8.40
2023-04-05T12:40:13.416Z,7.53
2023-04-05T12:43:25.860Z,8.50
2023-04-05T12:46:49.268Z,7.90
2023-04-05T12:50:02.834Z,7.58
2023-04-05T12:53:17.930Z,8.20
2023-04-05T12:56:30.367Z,7.15
2023-04-05T12:59:42.805Z,8.60
2023-04-05T13:02:59.908Z,7.40
2023-04-05T13:09:22.790Z,7.55
2023-04-05T13:12:35.192Z,7.18
2023-04-05T13:15:48.708Z,7.90
2023-04-05T13:19:01.551Z,6.60
2023-04-05T13:22:13.672Z,6.58
2023-04-05T13:25:25.821Z,7.10
2023-04-05T13:28:38.485Z,7.40
2023-04-05T13:31:50.782Z,6.98
2023-04-05T13:35:02.941Z,7.18
2023-04-05T13:38:15.716Z,7.15
2023-04-05T13:41:27.910Z,7.60
2023-04-05T13:44:39.888Z,7.03
2023-04-05T13:47:52.155Z,7.60
2023-04-05T13:51:04.378Z,8.28
2023-04-05T13:54:16.528Z,10.08
2023-04-05T13:57:28.628Z,8.23
2023-04-05T14:00:40.957Z,8.28
2023-04-05T14:03:53.281Z,22.85
2023-04-05T14:07:06.549Z,14.38
2023-04-05T14:10:21.304Z,9.10
2023-04-05T14:13:33.393Z,7.53
2023-04-05T14:16:46.045Z,8.25
2023-04-05T14:19:58.215Z,8.18
2023-04-05T14:23:10.562Z,7.15
2023-04-05T14:26:22.817Z,7.35
2023-04-05T14:29:35.187Z,8.68
2023-04-05T14:32:47.437Z,7.18
2023-04-05T14:36:00.008Z,7.28
2023-04-05T14:39:12.835Z,7.65
2023-04-05T14:42:34.042Z,7.63
2023-04-05T14:45:39.944Z,7.63
2023-04-05T14:48:52.299Z,7.98
2023-04-05T14:52:04.870Z,7.10
2023-04-05T14:55:17.623Z,7.80
2023-04-05T14:58:29.623Z,8.00
2023-04-05T15:01:44.089Z,7.55
2023-04-05T15:04:58.354Z,7.95
2023-04-05T15:08:10.589Z,7.75
2023-04-05T15:11:22.621Z,7.08
2023-04-05T15:14:35.381Z,6.88
2023-04-05T15:17:47.485Z,6.60
2023-04-05T15:20:59.815Z,6.18
2023-04-05T15:24:12.295Z,6.28
2023-04-05T15:27:24.308Z,6.25
2023-04-05T15:30:36.613Z,6.63
2023-04-05T15:33:49.038Z,6.20
2023-04-05T15:37:01.739Z,6.70
2023-04-05T15:40:16.312Z,6.50
2023-04-05T15:43:28.479Z,6.43
2023-04-05T15:46:40.537Z,6.08
2023-04-05T15:49:52.940Z,5.95
2023-04-05T15:53:05.254Z,5.80
2023-04-05T15:56:17.327Z,7.85
2023-04-05T15:59:29.444Z,6.58
2023-04-05T16:02:42.538Z,5.58
2023-04-05T16:05:54.789Z,5.63
2023-04-05T16:09:07.057Z,4.90
2023-04-05T16:12:19.842Z,5.58
2023-04-05T16:15:33.361Z,5.53
2023-04-05T16:18:45.537Z,4.78
2023-04-05T16:21:58.123Z,5.25
2023-04-05T16:25:11.081Z,5.78
2023-04-05T16:28:23.200Z,5.40
2023-04-05T16:31:35.961Z,5.15
2023-04-05T16:34:48.074Z,5.53
2023-04-05T16:38:00.344Z,5.18
2023-04-05T16:41:12.386Z,4.83
2023-04-05T16:44:24.506Z,5.65
2023-04-05T16:47:36.454Z,4.73
2023-04-05T16:50:48.535Z,5.10
2023-04-05T16:54:01.755Z,4.55
2023-04-05T16:57:13.939Z,4.75
2023-04-05T17:00:27.304Z,4.25
2023-04-05T17:03:39.401Z,4.65
2023-04-05T17:06:51.736Z,4.85
2023-04-05T17:10:04.610Z,5.05
2023-04-05T17:13:18.289Z,4.65
2023-04-05T17:16:30.381Z,5.10
2023-04-05T17:19:42.437Z,5.00
2023-04-05T17:22:55.044Z,4.83
2023-04-05T17:26:08.241Z,4.95
2023-04-05T17:29:21.173Z,4.68
2023-04-05T17:32:34.956Z,4.80
2023-04-05T17:35:47.960Z,4.90
2023-04-05T17:39:00.545Z,5.18
2023-04-05T17:42:12.801Z,5.15
2023-04-05T17:45:25.049Z,5.08
2023-04-05T17:48:37.164Z,4.48
2023-04-05T17:51:49.297Z,4.98
2023-04-05T17:55:01.476Z,4.55
2023-04-05T17:58:13.475Z,4.78
2023-04-05T18:01:25.557Z,5.03
2023-04-05T18:04:37.602Z,5.68
2023-04-05T18:07:49.612Z,5.23
2023-04-05T18:11:06.559Z,5.33
2023-04-05T18:14:21.047Z,5.43
2023-04-05T18:17:33.812Z,6.00
2023-04-05T18:20:46.017Z,5.80
2023-04-05T18:23:58.164Z,5.53
2023-04-05T18:30:23.432Z,6.20
2023-04-05T18:33:37.540Z,6.88
2023-04-05T18:36:49.554Z,5.55
2023-04-05T18:40:01.893Z,6.80
2023-04-05T18:43:14.172Z,6.00
2023-04-05T18:46:28.314Z,5.80
2023-04-05T18:49:41.239Z,6.48
2023-04-05T18:52:53.307Z,6.78
2023-04-05T18:56:05.881Z,5.93
2023-04-05T18:59:18.057Z,6.18
2023-04-05T19:02:30.190Z,5.90
2023-04-05T19:05:42.372Z,5.85
2023-04-05T19:08:54.472Z,5.68
2023-04-05T19:12:06.515Z,6.15
2023-04-05T19:15:19.962Z,5.78
2023-04-05T19:18:32.276Z,6.15
2023-04-05T19:21:44.550Z,6.35
2023-04-05T19:24:56.609Z,6.63
2023-04-05T19:28:09.094Z,6.13
2023-04-05T19:31:21.050Z,5.65
2023-04-05T19:34:33.657Z,5.60
2023-04-05T19:37:46.385Z,5.75
2023-04-05T19:40:58.759Z,5.25
2023-04-05T19:44:16.702Z,5.83
2023-04-05T19:47:31.834Z,5.78
2023-04-05T19:50:58.331Z,5.80
2023-04-05T19:54:15.641Z,5.73
2023-04-05T20:00:42.060Z,5.38
2023-04-05T20:03:54.529Z,4.73
2023-04-05T20:07:06.805Z,5.43
2023-04-05T20:10:23.543Z,6.03
2023-04-05T20:13:36.077Z,6.43
2023-04-05T20:16:51.942Z,6.80
2023-04-05T20:20:07.499Z,7.48
2023-04-05T20:23:23.547Z,10.48
2023-04-05T20:26:38.339Z,8.30
2023-04-05T20:29:52.714Z,9.00
2023-04-05T20:33:05.457Z,13.88
2023-04-05T20:36:21.103Z,12.28
2023-04-05T20:39:34.378Z,10.18
2023-04-05T20:42:46.818Z,10.13
2023-04-05T20:45:59.858Z,12.15
2023-04-05T20:49:12.189Z,11.55
2023-04-05T20:52:26.673Z,13.40
2023-04-05T20:55:39.538Z,13.33
2023-04-05T20:58:51.726Z,13.98
2023-04-05T21:02:04.615Z,13.75
2023-04-05T21:05:17.905Z,11.43
2023-04-05T21:17:30.555Z,11.98
2023-04-05T21:20:45.085Z,11.95
2023-04-05T21:29:57.337Z,9.75
2023-04-05T21:39:40.712Z,10.50
2023-04-05T21:42:53.371Z,9.53
2023-04-05T21:46:05.684Z,10.35
2023-04-05T21:49:18.138Z,10.43
2023-04-05T21:52:30.993Z,10.13
2023-04-05T21:55:43.543Z,10.13
2023-04-05T21:58:55.703Z,9.95
2023-04-05T22:02:07.974Z,9.73
2023-04-05T22:05:34.024Z,10.80
2023-04-05T22:08:36.013Z,10.60
2023-04-05T22:11:49.314Z,10.20
2023-04-05T22:15:02.215Z,10.83
2023-04-05T22:18:14.374Z,9.85
2023-04-05T22:46:15.205Z,10.80
2023-04-05T23:36:23.137Z,9.60
2023-04-05T23:39:35.146Z,9.95
2023-04-05T23:42:47.341Z,10.10
2023-04-05T23:45:59.606Z,10.58
